createdAt,value
2018-07-23T00:00:48.806Z,100962.58
2018-07-23T00:03:15.494Z,100957.27
2018-07-23T00:05:42.209Z,100963.54
2018-07-23T00:08:08.872Z,100963.47
2018-07-23T00:10:35.536Z,100960.39
2018-07-23T00:13:02.208Z,100961.68
2018-07-23T00:15:28.877Z,100965.17
2018-07-23T00:17:55.542Z,100963.13
2018-07-23T00:20:22.196Z,100963.63
2018-07-23T00:22:48.872Z,100963.63
2018-07-23T00:25:15.509Z,100959.14
2018-07-23T00:27:42.205Z,100962.02
2018-07-23T00:30:08.873Z,100959.14
2018-07-23T00:32:35.888Z,100968.52
2018-07-23T00:35:02.561Z,100968.02
2018-07-23T00:37:29.235Z,100959.36
2018-07-23T00:39:55.912Z,100962.86
2018-07-23T00:42:22.565Z,100968.33
2018-07-23T00:44:49.224Z,100965.30
2018-07-23T00:47:15.888Z,100962.64
2018-07-23T00:49:44.035Z,100961.19
2018-07-23T00:52:10.709Z,100962.45
2018-07-23T00:54:37.381Z,100960.28
2018-07-23T00:57:04.065Z,100961.61
2018-07-23T00:59:30.708Z,100967.05
2018-07-23T01:01:57.424Z,100969.70
2018-07-23T01:04:24.092Z,100969.86
2018-07-23T01:06:50.794Z,100970.54
2018-07-23T01:09:18.545Z,100969.44
2018-07-23T01:11:45.201Z,100967.27
2018-07-23T01:14:12.770Z,100962.94
2018-07-23T01:16:40.456Z,100964.77
2018-07-23T01:19:07.124Z,100963.55
2018-07-23T01:21:33.793Z,100964.55
2018-07-23T01:24:00.457Z,100966.21
2018-07-23T01:26:27.108Z,100970.20
2018-07-23T01:28:53.753Z,100970.35
2018-07-23T01:31:20.414Z,100968.53
2018-07-23T01:33:48.353Z,100970.84
2018-07-23T01:36:15.007Z,100966.86
2018-07-23T01:38:41.676Z,100972.86
2018-07-23T01:41:09.320Z,100970.91
2018-07-23T01:43:35.956Z,100975.66
2018-07-23T01:46:03.580Z,100975.86
2018-07-23T01:48:30.236Z,100982.04
2018-07-23T01:50:56.880Z,100978.52
2018-07-23T01:53:23.517Z,100975.52
2018-07-23T01:55:50.181Z,100978.52
2018-07-23T01:58:18.202Z,100980.48
2018-07-23T02:00:44.921Z,100979.80
2018-07-23T02:03:11.584Z,100983.36
2018-07-23T02:05:38.240Z,100980.34
2018-07-23T02:08:05.877Z,100983.36
2018-07-23T02:10:32.510Z,100977.83
2018-07-23T02:13:00.106Z,100981.66
2018-07-23T02:15:26.760Z,100979.50
2018-07-23T02:17:54.244Z,100984.32
2018-07-23T02:20:20.981Z,100982.50
2018-07-23T02:22:48.862Z,100989.64
2018-07-23T02:25:15.533Z,100987.62
2018-07-23T02:27:42.263Z,100991.46
2018-07-23T02:30:09.795Z,100986.98
2018-07-23T02:32:36.447Z,100991.46
2018-07-23T02:35:04.003Z,100992.17
2018-07-23T02:37:30.661Z,100996.20
2018-07-23T02:39:57.300Z,100995.33
2018-07-23T02:42:23.941Z,100991.46
2018-07-23T02:44:50.619Z,100997.49
2018-07-23T02:47:17.749Z,100999.66
2018-07-23T02:49:44.400Z,100997.12
2018-07-23T02:52:11.042Z,101002.16
2018-07-23T02:54:37.717Z,101007.82
2018-07-23T02:57:04.366Z,101002.16
2018-07-23T02:59:31.033Z,101009.37
2018-07-23T03:01:57.685Z,101009.79
2018-07-23T03:04:25.395Z,101006.48
2018-07-23T03:06:52.938Z,101011.95
2018-07-23T03:09:20.487Z,101009.79
2018-07-23T03:11:47.961Z,101014.27
2018-07-23T03:14:14.622Z,101011.95
2018-07-23T03:16:43.256Z,101014.95
2018-07-23T03:19:09.916Z,101007.13
2018-07-23T03:21:36.621Z,101009.64
2018-07-23T03:24:04.243Z,101006.37
2018-07-23T03:26:30.905Z,101013.85
2018-07-23T03:28:57.561Z,101014.34
2018-07-23T03:31:24.265Z,101007.48
2018-07-23T03:33:51.929Z,101016.02
2018-07-23T03:36:20.669Z,101013.13
2018-07-23T03:38:48.808Z,101014.61
2018-07-23T03:41:15.463Z,101016.51
2018-07-23T03:43:43.126Z,101017.27
2018-07-23T03:46:09.798Z,101023.42
2018-07-23T03:48:36.504Z,101027.41
2018-07-23T03:51:03.227Z,101026.42
2018-07-23T03:53:29.909Z,101030.07
2018-07-23T03:55:57.386Z,101037.20
2018-07-23T03:58:24.070Z,101037.20
2018-07-23T04:00:50.719Z,101037.55
2018-07-23T04:03:18.933Z,101044.91
2018-07-23T04:05:46.444Z,101038.38
2018-07-23T04:08:13.702Z,101044.76
2018-07-23T04:10:42.443Z,101046.23
2018-07-23T04:13:09.135Z,101048.06
2018-07-23T04:15:37.713Z,101044.08
2018-07-23T04:18:04.426Z,101047.15
2018-07-23T04:20:32.886Z,101043.36
2018-07-23T04:22:59.530Z,101043.70
2018-07-23T04:25:26.257Z,101046.73
2018-07-23T04:27:53.812Z,101048.67
2018-07-23T04:30:20.497Z,101050.00
2018-07-23T04:32:49.055Z,101047.49
2018-07-23T04:35:17.668Z,101053.16
2018-07-23T04:37:44.443Z,101054.82
2018-07-23T04:40:11.220Z,101048.94
2018-07-23T04:42:38.720Z,101057.29
2018-07-23T04:45:05.397Z,101057.78
2018-07-23T04:47:32.959Z,101059.45
2018-07-23T04:49:59.632Z,101057.97
2018-07-23T04:52:27.187Z,101059.03
2018-07-23T04:54:53.909Z,101059.30
2018-07-23T04:57:20.593Z,101060.97
2018-07-23T04:59:48.765Z,101060.14
2018-07-23T05:02:15.431Z,101064.62
2018-07-23T05:04:42.960Z,101064.27
2018-07-23T05:07:09.653Z,101062.95
2018-07-23T05:09:36.329Z,101062.60
2018-07-23T05:12:02.984Z,101062.03
2018-07-23T05:14:29.653Z,101066.02
2018-07-23T05:16:56.315Z,101061.88
2018-07-23T05:19:23.808Z,101064.35
2018-07-23T05:21:50.465Z,101063.36
2018-07-23T05:24:18.603Z,101064.42
2018-07-23T05:26:45.244Z,101069.52
2018-07-23T05:29:13.804Z,101071.41
2018-07-23T05:31:40.457Z,101074.56
2018-07-23T05:34:07.161Z,101073.23
2018-07-23T05:36:34.704Z,101076.58
2018-07-23T05:39:01.372Z,101077.30
2018-07-23T05:41:29.016Z,101074.41
2018-07-23T05:43:55.696Z,101075.89
2018-07-23T05:46:22.423Z,101074.91
2018-07-23T05:48:49.093Z,101080.80
2018-07-23T05:51:16.739Z,101076.80
2018-07-23T05:53:44.400Z,101075.48
2018-07-23T05:56:11.163Z,101073.42
2018-07-23T05:58:38.871Z,101069.02
2018-07-23T06:01:06.735Z,101071.34
2018-07-23T06:03:34.353Z,101081.70
2018-07-23T06:06:00.985Z,101088.13
2018-07-23T06:08:27.645Z,101085.61
2018-07-23T06:10:55.166Z,101081.77
2018-07-23T06:13:21.900Z,101082.40
2018-07-23T06:15:50.983Z,101082.53
2018-07-23T06:18:18.606Z,101085.27
2018-07-23T06:20:46.188Z,101091.91
2018-07-23T06:23:13.892Z,101088.57
2018-07-23T06:25:40.589Z,101084.09
2018-07-23T06:28:08.216Z,101085.27
2018-07-23T06:30:35.825Z,101089.41
2018-07-23T06:33:03.624Z,101088.57
2018-07-23T06:35:31.216Z,101091.08
2018-07-23T06:37:58.796Z,101085.42
2018-07-23T06:40:25.718Z,101089.06
2018-07-23T06:42:52.372Z,101094.38
2018-07-23T06:45:19.864Z,101097.23
2018-07-23T06:47:48.990Z,101096.89
2018-07-23T06:50:16.596Z,101097.54
2018-07-23T06:52:44.624Z,101095.73
2018-07-23T06:55:13.480Z,101095.13
2018-07-23T06:57:40.277Z,101094.02
2018-07-23T07:00:06.973Z,101092.83
2018-07-23T07:02:34.560Z,101087.52
2018-07-23T07:05:02.297Z,101081.36
2018-07-23T07:07:28.935Z,101085.25
2018-07-23T07:09:55.612Z,101082.31
2018-07-23T07:12:22.342Z,101079.76
2018-07-23T07:14:49.368Z,101088.23
2018-07-23T07:17:16.121Z,101083.77
2018-07-23T07:19:43.761Z,101091.28
2018-07-23T07:22:10.414Z,101086.08
2018-07-23T07:24:37.062Z,101085.73
2018-07-23T07:27:03.904Z,101091.35
2018-07-23T07:29:30.570Z,101086.30
2018-07-23T07:31:57.225Z,101096.94
2018-07-23T07:34:23.932Z,101092.00
2018-07-23T07:36:50.580Z,101093.17
2018-07-23T07:39:18.835Z,101087.91
2018-07-23T07:41:46.444Z,101092.05
2018-07-23T07:44:14.395Z,101082.09
2018-07-23T07:46:41.195Z,101091.89
2018-07-23T07:49:08.020Z,101089.58
2018-07-23T07:51:34.689Z,101090.23
2018-07-23T07:54:01.369Z,101089.90
2018-07-23T07:56:28.040Z,101092.83
2018-07-23T07:58:54.763Z,101090.41
2018-07-23T08:01:22.224Z,101091.89
2018-07-23T08:03:48.892Z,101093.88
2018-07-23T08:06:15.605Z,101092.05
2018-07-23T08:08:43.507Z,101095.81
2018-07-23T08:11:10.188Z,101099.38
2018-07-23T08:13:37.724Z,101095.61
2018-07-23T08:16:04.392Z,101097.86
2018-07-23T08:18:32.014Z,101095.27
2018-07-23T08:20:58.829Z,101092.54
2018-07-23T08:23:25.476Z,101094.37
2018-07-23T08:25:52.140Z,101099.11
2018-07-23T08:28:18.893Z,101102.63
2018-07-23T08:30:45.535Z,101105.91
2018-07-23T08:33:12.892Z,101108.08
2018-07-23T08:35:39.548Z,101111.34
2018-07-23T08:38:06.212Z,101118.57
2018-07-23T08:40:32.986Z,101119.67
2018-07-23T08:42:59.672Z,101122.48
2018-07-23T08:45:26.326Z,101124.45
2018-07-23T08:47:52.969Z,101117.39
2018-07-23T08:50:19.661Z,101119.92
2018-07-23T08:52:46.297Z,101123.05
2018-07-23T08:55:14.032Z,101120.66
2018-07-23T08:57:40.693Z,101119.48
2018-07-23T09:00:07.376Z,101128.07
2018-07-23T09:02:34.037Z,101128.56
2018-07-23T09:05:00.688Z,101136.55
2018-07-23T09:07:28.160Z,101135.63
2018-07-23T09:09:55.744Z,101139.58
2018-07-23T09:12:23.400Z,101133.05
2018-07-23T09:14:50.913Z,101133.88
2018-07-23T09:17:19.467Z,101127.45
2018-07-23T09:19:48.132Z,101134.87
2018-07-23T09:22:15.813Z,101136.84
2018-07-23T09:24:44.045Z,101141.52
2018-07-23T09:27:11.548Z,101134.11
2018-07-23T09:29:39.184Z,101132.63
2018-07-23T09:32:06.827Z,101127.88
2018-07-23T09:34:34.404Z,101124.95
2018-07-23T09:37:02.133Z,101124.58
2018-07-23T09:39:29.696Z,101125.83
2018-07-23T09:41:57.304Z,101126.13
2018-07-23T09:44:24.893Z,101129.28
2018-07-23T09:46:52.619Z,101125.91
2018-07-23T09:49:20.225Z,101126.89
2018-07-23T09:51:48.539Z,101123.89
2018-07-23T09:54:16.040Z,101128.72
2018-07-23T09:56:44.391Z,101126.62
2018-07-23T09:59:13.033Z,101128.64
2018-07-23T10:01:40.608Z,101118.01
2018-07-23T10:04:08.228Z,101123.17
2018-07-23T10:06:35.919Z,101113.44
2018-07-23T10:09:05.469Z,101111.58
2018-07-23T10:11:32.110Z,101121.00
2018-07-23T10:13:58.782Z,101115.19
2018-07-23T10:16:25.484Z,101114.73
2018-07-23T10:18:52.144Z,101113.38
2018-07-23T10:21:19.568Z,101116.33
2018-07-23T10:23:48.533Z,101117.17
2018-07-23T10:26:15.180Z,101117.66
2018-07-23T10:28:41.840Z,101116.52
2018-07-23T10:31:09.407Z,101112.76
2018-07-23T10:33:36.056Z,101115.34
2018-07-23T10:36:02.714Z,101105.55
2018-07-23T10:38:29.362Z,101102.55
2018-07-23T10:40:56.992Z,101114.52
2018-07-23T10:43:23.645Z,101111.02
2018-07-23T10:45:50.304Z,101111.02
2018-07-23T10:48:18.677Z,101111.77
2018-07-23T10:50:45.340Z,101104.37
2018-07-23T10:53:14.163Z,101105.70
2018-07-23T10:55:41.789Z,101105.70
2018-07-23T10:58:09.362Z,101094.84
2018-07-23T11:00:36.016Z,101097.87
2018-07-23T11:03:03.632Z,101099.39
2018-07-23T11:05:30.273Z,101100.65
2018-07-23T11:07:57.884Z,101096.39
2018-07-23T11:10:25.531Z,101100.03
2018-07-23T11:12:53.174Z,101100.30
2018-07-23T11:15:19.810Z,101097.98
2018-07-23T11:17:48.535Z,101092.55
2018-07-23T11:20:16.055Z,101091.15
2018-07-23T11:22:45.144Z,101091.98
2018-07-23T11:25:38.594Z,101090.16
2018-07-23T11:27:40.261Z,101091.42
2018-07-23T11:30:06.940Z,101087.35
2018-07-23T11:32:34.192Z,101089.89
2018-07-23T11:35:01.769Z,101090.80
2018-07-23T11:37:29.228Z,101097.22
2018-07-23T11:39:56.868Z,101086.67
2018-07-23T11:42:24.469Z,101083.30
2018-07-23T11:44:52.054Z,101082.34
2018-07-23T11:47:19.028Z,101095.48
2018-07-23T11:49:46.673Z,101085.91
2018-07-23T11:52:14.775Z,101082.38
2018-07-23T11:54:41.041Z,101090.09
2018-07-23T11:57:08.510Z,101091.07
2018-07-23T11:59:35.167Z,101087.35
2018-07-23T12:02:02.780Z,101088.41
2018-07-23T12:04:29.487Z,101086.25
2018-07-23T12:06:56.140Z,101082.80
2018-07-23T12:09:22.808Z,101079.72
2018-07-23T12:11:49.511Z,101077.28
2018-07-23T12:14:16.156Z,101077.06
2018-07-23T12:16:43.980Z,101081.34
2018-07-23T12:19:10.655Z,101079.19
2018-07-23T12:21:37.304Z,101082.11
2018-07-23T12:24:04.116Z,101082.75
2018-07-23T12:26:30.911Z,101083.67
2018-07-23T12:28:58.610Z,101085.19
2018-07-23T12:31:26.159Z,101085.19
2018-07-23T12:33:53.764Z,101092.97
2018-07-23T12:36:21.936Z,101085.83
2018-07-23T12:38:49.638Z,101088.27
2018-07-23T12:41:16.309Z,101075.47
2018-07-23T12:43:45.373Z,101076.11
2018-07-23T12:46:14.284Z,101074.78
2018-07-23T12:48:44.576Z,101073.56
2018-07-23T12:51:12.093Z,101074.55
2018-07-23T12:53:39.125Z,101079.03
2018-07-23T12:56:06.738Z,101074.40
2018-07-23T12:58:33.374Z,101070.41
2018-07-23T13:01:00.937Z,101074.70
2018-07-23T13:03:28.604Z,101076.88
2018-07-23T13:05:56.232Z,101081.01
2018-07-23T13:08:23.922Z,101080.64
2018-07-23T13:10:51.607Z,101078.69
2018-07-23T13:13:19.188Z,101067.00
2018-07-23T13:15:45.952Z,101074.63
2018-07-23T13:18:14.736Z,101074.40
2018-07-23T13:20:43.042Z,101076.03
2018-07-23T13:23:10.508Z,101063.50
2018-07-23T13:25:37.194Z,101074.91
2018-07-23T13:28:04.841Z,101078.69
2018-07-23T13:30:31.530Z,101071.97
2018-07-23T13:32:58.158Z,101073.80
2018-07-23T13:35:25.600Z,101068.89
2018-07-23T13:37:53.144Z,101068.17
2018-07-23T13:40:19.803Z,101077.70
2018-07-23T13:42:48.540Z,101072.13
2018-07-23T13:45:15.225Z,101080.86
2018-07-23T13:47:42.779Z,101076.22
2018-07-23T13:50:09.456Z,101070.41
2018-07-23T13:52:36.907Z,101061.91
2018-07-23T13:55:03.568Z,101070.00
2018-07-23T13:57:31.090Z,101061.53
2018-07-23T13:59:57.748Z,101062.40
2018-07-23T14:02:25.280Z,101064.34
2018-07-23T14:04:52.820Z,101053.36
2018-07-23T14:07:19.464Z,101056.36
2018-07-23T14:09:48.375Z,101059.36
2018-07-23T14:12:15.952Z,101060.69
2018-07-23T14:14:44.902Z,101056.52
2018-07-23T14:17:13.428Z,101060.77
2018-07-23T14:19:40.885Z,101053.43
2018-07-23T14:22:07.526Z,101057.84
2018-07-23T14:24:35.017Z,101064.19
2018-07-23T14:27:02.469Z,101065.67
2018-07-23T14:29:30.173Z,101052.87
2018-07-23T14:31:57.742Z,101061.68
2018-07-23T14:34:24.381Z,101057.77
2018-07-23T14:36:52.021Z,101057.20
2018-07-23T14:39:18.743Z,101055.30
2018-07-23T14:41:45.398Z,101061.06
2018-07-23T14:44:12.048Z,101053.09
2018-07-23T14:46:39.966Z,101049.72
2018-07-23T14:49:07.009Z,101052.22
2018-07-23T14:51:34.904Z,101047.70
2018-07-23T14:54:01.557Z,101044.33
2018-07-23T14:56:28.216Z,101044.96
2018-07-23T14:58:54.891Z,101042.30
2018-07-23T15:01:21.555Z,101048.73
2018-07-23T15:03:49.100Z,101044.25
2018-07-23T15:06:15.760Z,101048.80
2018-07-23T15:08:44.260Z,101038.81
2018-07-23T15:11:10.932Z,101039.00
2018-07-23T15:13:38.401Z,101034.67
2018-07-23T15:16:06.166Z,101047.81
2018-07-23T15:18:33.844Z,101042.80
2018-07-23T15:21:00.545Z,101041.73
2018-07-23T15:23:27.201Z,101043.84
2018-07-23T15:25:53.879Z,101047.77
2018-07-23T15:28:20.545Z,101043.41
2018-07-23T15:30:48.313Z,101039.42
2018-07-23T15:33:14.972Z,101028.30
2018-07-23T15:35:41.644Z,101036.23
2018-07-23T15:38:08.295Z,101037.75
2018-07-23T15:40:34.940Z,101038.02
2018-07-23T15:43:01.581Z,101030.00
2018-07-23T15:45:28.322Z,101033.34
2018-07-23T15:47:54.900Z,101036.91
2018-07-23T15:50:21.601Z,101033.00
2018-07-23T15:52:49.644Z,101025.52
2018-07-23T15:55:16.291Z,101028.78
2018-07-23T15:57:43.612Z,101027.12
2018-07-23T16:00:10.290Z,101026.63
2018-07-23T16:02:36.929Z,101023.84
2018-07-23T16:05:03.589Z,101022.86
2018-07-23T16:07:30.483Z,101021.03
2018-07-23T16:09:57.125Z,101026.86
2018-07-23T16:12:23.763Z,101025.02
2018-07-23T16:14:50.387Z,101025.20
2018-07-23T16:17:18.184Z,101027.34
2018-07-23T16:19:44.814Z,101022.98
2018-07-23T16:22:13.852Z,101023.28
2018-07-23T16:24:40.508Z,101022.45
2018-07-23T16:27:07.200Z,101025.30
2018-07-23T16:29:34.796Z,101019.97
2018-07-23T16:32:03.471Z,101030.77
2018-07-23T16:34:30.979Z,101023.90
2018-07-23T16:36:58.672Z,101028.03
2018-07-23T16:39:26.260Z,101029.09
2018-07-23T16:41:53.879Z,101025.11
2018-07-23T16:44:21.504Z,101023.78
2018-07-23T16:46:48.897Z,101034.34
2018-07-23T16:49:15.548Z,101036.84
2018-07-23T16:51:42.217Z,101032.44
2018-07-23T16:54:08.884Z,101028.45
2018-07-23T16:56:35.531Z,101026.55
2018-07-23T16:59:02.179Z,101027.77
2018-07-23T17:01:28.814Z,101026.36
2018-07-23T17:03:55.447Z,101028.45
2018-07-23T17:06:22.285Z,101025.79
2018-07-23T17:08:48.909Z,101031.26
2018-07-23T17:11:15.552Z,101027.55
2018-07-23T17:13:42.195Z,101032.02
2018-07-23T17:16:08.840Z,101028.53
2018-07-23T17:18:35.476Z,101036.66
2018-07-23T17:21:02.198Z,101035.02
2018-07-23T17:23:29.785Z,101037.59
2018-07-23T17:25:56.416Z,101034.48
2018-07-23T17:28:23.067Z,101043.91
2018-07-23T17:30:49.723Z,101037.06
2018-07-23T17:33:16.361Z,101039.02
2018-07-23T17:35:43.757Z,101043.34
2018-07-23T17:38:11.379Z,101046.72
2018-07-23T17:40:38.040Z,101042.88
2018-07-23T17:43:05.692Z,101045.31
2018-07-23T17:45:32.367Z,101046.30
2018-07-23T17:47:59.544Z,101044.14
2018-07-23T17:50:26.203Z,101047.97
2018-07-23T17:52:52.937Z,101052.61
2018-07-23T17:55:20.396Z,101053.29
2018-07-23T17:57:48.340Z,101056.22
2018-07-23T18:00:15.001Z,101053.72
2018-07-23T18:02:43.556Z,101061.54
2018-07-23T18:05:11.168Z,101059.86
2018-07-23T18:07:37.848Z,101055.95
2018-07-23T18:10:05.453Z,101058.46
2018-07-23T18:12:33.221Z,101066.02
2018-07-23T18:14:59.881Z,101068.83
2018-07-23T18:17:27.446Z,101069.17
2018-07-23T18:19:54.080Z,101066.36
2018-07-23T18:22:21.713Z,101065.52
2018-07-23T18:24:49.989Z,101070.34
2018-07-23T18:27:16.633Z,101074.34
2018-07-23T18:29:44.349Z,101071.83
2018-07-23T18:32:11.150Z,101069.81
2018-07-23T18:34:37.849Z,101068.34
2018-07-23T18:37:05.350Z,101072.55
2018-07-23T18:39:32.049Z,101071.98
2018-07-23T18:41:58.708Z,101073.80
2018-07-23T18:44:26.208Z,101078.28
2018-07-23T18:46:52.892Z,101076.08
2018-07-23T18:49:35.837Z,101079.73
2018-07-23T18:52:02.487Z,101086.03
2018-07-23T18:54:30.157Z,101092.95
2018-07-23T18:56:57.872Z,101089.45
2018-07-23T18:59:24.572Z,101089.18
2018-07-23T19:01:52.184Z,101092.26
2018-07-23T19:04:19.663Z,101097.28
2018-07-23T19:06:46.620Z,101098.75
2018-07-23T19:09:18.520Z,101101.75
2018-07-23T19:11:46.177Z,101106.23
2018-07-23T19:14:14.240Z,101105.40
2018-07-23T19:16:41.407Z,101105.06
2018-07-23T19:19:09.104Z,101109.88
2018-07-23T19:21:36.818Z,101116.18
2018-07-23T19:24:03.474Z,101115.20
2018-07-23T19:26:31.136Z,101118.84
2018-07-23T19:28:57.812Z,101121.16
2018-07-23T19:31:25.600Z,101120.51
2018-07-23T19:33:52.260Z,101120.17
2018-07-23T19:36:19.595Z,101122.11
2018-07-23T19:38:48.434Z,101127.30
2018-07-23T19:41:16.028Z,101135.05
2018-07-23T19:43:44.668Z,101130.72
2018-07-23T19:46:12.041Z,101135.20
2018-07-23T19:48:39.412Z,101135.28
2018-07-23T19:51:07.276Z,101136.11
2018-07-23T19:53:35.028Z,101142.05
2018-07-23T19:56:02.565Z,101146.41
2018-07-23T19:58:29.283Z,101143.59
2018-07-23T20:00:56.885Z,101142.42
2018-07-23T20:03:24.616Z,101147.73
2018-07-23T20:05:52.286Z,101142.05
2018-07-23T20:08:19.844Z,101139.76
2018-07-23T20:10:46.520Z,101138.43
2018-07-23T20:13:15.540Z,101146.03
2018-07-23T20:15:42.209Z,101145.19
2018-07-23T20:18:09.712Z,101147.23
2018-07-23T20:20:36.403Z,101138.55
2018-07-23T20:23:03.924Z,101141.92
2018-07-23T20:25:31.492Z,101143.25
2018-07-23T20:27:58.977Z,101142.05
2018-07-23T20:30:25.668Z,101146.41
2018-07-23T20:32:52.325Z,101145.08
2018-07-23T20:35:20.120Z,101140.10
2018-07-23T20:37:48.555Z,101139.76
2018-07-23T20:40:15.272Z,101139.04
2018-07-23T20:42:41.884Z,101137.86
2018-07-23T20:45:08.526Z,101133.98
2018-07-23T20:47:35.984Z,101130.49
2018-07-23T20:50:03.608Z,101137.78
2018-07-23T20:52:31.234Z,101139.59
2018-07-23T20:54:59.036Z,101140.58
2018-07-23T20:57:25.689Z,101143.23
2018-07-23T20:59:52.331Z,101143.23
2018-07-23T21:02:18.978Z,101147.58
2018-07-23T21:04:45.660Z,101148.41
2018-07-23T21:07:12.310Z,101151.91
2018-07-23T21:09:38.963Z,101151.91
2018-07-23T21:12:05.697Z,101152.73
2018-07-23T21:14:32.340Z,101151.91
2018-07-23T21:16:59.113Z,101151.55
2018-07-23T21:19:26.565Z,101151.21
2018-07-23T21:21:53.235Z,101154.13
2018-07-23T21:24:19.891Z,101157.62
2018-07-23T21:26:48.925Z,101154.13
2018-07-23T21:29:15.572Z,101159.10
2018-07-23T21:31:42.231Z,101158.27
2018-07-23T21:34:08.887Z,101160.14
2018-07-23T21:36:36.335Z,101156.53
2018-07-23T21:39:03.857Z,101162.36
2018-07-23T21:41:30.520Z,101160.77
2018-07-23T21:43:57.187Z,101162.95
2018-07-23T21:46:24.683Z,101156.71
2018-07-23T21:48:51.321Z,101163.44
2018-07-23T21:51:19.140Z,101161.00
2018-07-23T21:53:46.678Z,101159.06
2018-07-23T21:56:14.572Z,101156.73
2018-07-23T21:58:42.184Z,101160.05
2018-07-23T22:01:08.815Z,101163.54
2018-07-23T22:03:35.468Z,101171.38
2018-07-23T22:06:02.119Z,101173.05
2018-07-23T22:08:29.615Z,101167.53
2018-07-23T22:10:57.206Z,101177.45
2018-07-23T22:13:24.858Z,101177.33
2018-07-23T22:15:51.528Z,101176.73
2018-07-23T22:18:19.024Z,101179.77
2018-07-23T22:20:45.676Z,101177.49
2018-07-23T22:23:12.312Z,101179.05
2018-07-23T22:25:38.953Z,101180.00
2018-07-23T22:28:05.589Z,101186.42
2018-07-23T22:30:32.245Z,101184.82
2018-07-23T22:32:58.891Z,101183.11
2018-07-23T22:35:25.541Z,101186.05
2018-07-23T22:37:52.224Z,101184.82
2018-07-23T22:40:18.886Z,101180.61
2018-07-23T22:42:45.531Z,101181.22
2018-07-23T22:45:12.173Z,101187.87
2018-07-23T22:47:38.808Z,101188.70
2018-07-23T22:50:06.432Z,101184.59
2018-07-23T22:52:34.137Z,101191.25
2018-07-23T22:55:01.779Z,101186.16
2018-07-23T22:57:28.424Z,101184.72
2018-07-23T22:59:55.083Z,101187.15
2018-07-23T23:02:22.648Z,101187.03
2018-07-23T23:04:49.296Z,101184.14
2018-07-23T23:07:17.925Z,101187.98
2018-07-23T23:09:44.618Z,101187.49
2018-07-23T23:12:11.253Z,101190.41
2018-07-23T23:14:38.848Z,101185.48
2018-07-23T23:17:05.488Z,101191.14
2018-07-23T23:19:32.161Z,101189.31
2018-07-23T23:21:58.793Z,101189.31
2018-07-23T23:24:26.548Z,101192.13
2018-07-23T23:26:53.522Z,101188.36
2018-07-23T23:29:21.088Z,101190.88
2018-07-23T23:31:48.855Z,101186.66
2018-07-23T23:34:16.356Z,101185.48
2018-07-23T23:36:44.042Z,101187.15
2018-07-23T23:39:11.792Z,101191.28
2018-07-23T23:41:38.519Z,101186.46
2018-07-23T23:44:05.182Z,101188.48
2018-07-23T23:46:31.874Z,101187.64
2018-07-23T23:48:58.531Z,101184.64
2018-07-23T23:51:25.186Z,101190.15
2018-07-23T23:53:51.853Z,101188.13
2018-07-23T23:56:19.728Z,101182.59
2018-07-23T23:58:46.387Z,101185.74
